Time;durP1;ratioP1;P1;durP2;ratioP2;P2;SDS_P1;SDS_P2;PMS_P1;PMS_P2;Temp;Humidity;BMP_temperature;BMP_pressure;BME280_temperature;BME280_humidity;BME280_pressure;Samples;Min_cycle;Max_cycle;Signal;HPM_P1;HPM_P2
2020/12/24 00:02:11;;;;;;;5.22;3.53;;;;;;;;;;5004238;28;20393;-74
2020/12/24 00:04:37;;;;;;;7.88;4.18;;;;;;;;;;4996105;28;20057;-74
2020/12/24 00:07:03;;;;;;;9.07;3.75;;;;;;;;;;5003658;28;22576;-74
2020/12/24 00:09:30;;;;;;;9.18;4.05;;;;;;;;;;4996502;28;20050;-75
2020/12/24 00:11:56;;;;;;;6.00;3.38;;;;;;;;;;5003337;28;20054;-74
2020/12/24 00:14:22;;;;;;;7.43;3.38;;;;;;;;;;5008018;28;20057;-75
2020/12/24 00:16:49;;;;;;;6.30;3.20;;;;;;;;;;5002149;28;20046;-75
2020/12/24 00:19:15;;;;;;;5.35;3.47;;;;;;;;;;4991735;28;20047;-75
2020/12/24 00:21:41;;;;;;;6.35;3.78;;;;;;;;;;5014801;28;20046;-74
2020/12/24 00:24:08;;;;;;;5.90;3.67;;;;;;;;;;4993189;28;20058;-74
2020/12/24 00:26:34;;;;;;;6.82;3.33;;;;;;;;;;5002745;28;20050;-76
2020/12/24 00:29:06;;;;;;;10.80;3.10;;;;;;;;;;5010163;28;20435;-75
2020/12/24 00:31:33;;;;;;;5.85;3.50;;;;;;;;;;5005499;28;20037;-76
2020/12/24 00:34:00;;;;;;;6.60;3.53;;;;;;;;;;5000978;28;20060;-74
2020/12/24 00:36:27;;;;;;;4.70;2.95;;;;;;;;;;5001991;28;20538;-74
2020/12/24 00:38:53;;;;;;;5.20;3.50;;;;;;;;;;5005524;28;20049;-74
2020/12/24 00:41:19;;;;;;;9.77;3.58;;;;;;;;;;5002839;28;20041;-74
2020/12/24 00:43:45;;;;;;;6.75;3.05;;;;;;;;;;5001992;28;20054;-73
2020/12/24 00:46:11;;;;;;;5.88;3.35;;;;;;;;;;5006666;28;20046;-74
2020/12/24 00:48:37;;;;;;;6.70;3.75;;;;;;;;;;5004778;28;20046;-74
2020/12/24 00:51:04;;;;;;;6.88;3.20;;;;;;;;;;5002664;28;20415;-75
2020/12/24 00:53:30;;;;;;;5.97;3.67;;;;;;;;;;5007808;28;20050;-73
2020/12/24 00:55:56;;;;;;;5.95;3.20;;;;;;;;;;5003876;28;20061;-76
2020/12/24 00:58:22;;;;;;;9.45;3.88;;;;;;;;;;5007903;28;20419;-75
2020/12/24 01:00:48;;;;;;;6.25;3.45;;;;;;;;;;5003700;28;20046;-76
2020/12/24 01:03:14;;;;;;;5.97;3.38;;;;;;;;;;5005715;28;20514;-74
2020/12/24 01:05:41;;;;;;;6.72;3.30;;;;;;;;;;4996669;28;20129;-75
2020/12/24 01:08:07;;;;;;;4.80;2.65;;;;;;;;;;5001639;28;20053;-80
2020/12/24 01:10:33;;;;;;;5.05;3.20;;;;;;;;;;5002629;28;20050;-73
2020/12/24 01:12:59;;;;;;;7.05;3.63;;;;;;;;;;5000885;28;20415;-74
2020/12/24 01:15:25;;;;;;;11.13;3.95;;;;;;;;;;4990000;28;20043;-76
2020/12/24 01:17:51;;;;;;;4.88;3.17;;;;;;;;;;5002571;28;20053;-75
2020/12/24 01:20:17;;;;;;;5.80;3.55;;;;;;;;;;4998579;28;20503;-75
2020/12/24 01:22:43;;;;;;;7.43;3.33;;;;;;;;;;5001563;28;20050;-76
2020/12/24 01:25:10;;;;;;;7.35;3.30;;;;;;;;;;5004777;28;20050;-76
2020/12/24 01:27:36;;;;;;;4.72;2.75;;;;;;;;;;5002329;28;20454;-77
2020/12/24 01:30:03;;;;;;;5.28;2.92;;;;;;;;;;5000955;28;20050;-77
2020/12/24 01:32:30;;;;;;;5.70;2.97;;;;;;;;;;5006914;28;20054;-77
2020/12/24 01:34:56;;;;;;;6.57;3.10;;;;;;;;;;4996034;28;20083;-77
2020/12/24 01:37:22;;;;;;;4.03;2.95;;;;;;;;;;5004615;28;20043;-74
2020/12/24 01:39:48;;;;;;;7.10;4.30;;;;;;;;;;4996909;28;20047;-75
2020/12/24 01:42:17;;;;;;;6.82;3.13;;;;;;;;;;5007053;28;20042;-75
2020/12/24 01:44:47;;;;;;;7.53;3.58;;;;;;;;;;5010525;28;20142;-75
2020/12/24 01:47:14;;;;;;;6.80;3.88;;;;;;;;;;5000337;28;20076;-75
2020/12/24 01:49:40;;;;;;;4.68;2.55;;;;;;;;;;4991707;28;20057;-75
2020/12/24 01:52:10;;;;;;;4.68;3.15;;;;;;;;;;4999486;28;20046;-75
2020/12/24 01:54:36;;;;;;;5.45;2.95;;;;;;;;;;5003857;28;20142;-76
2020/12/24 01:57:03;;;;;;;5.72;3.25;;;;;;;;;;5006481;28;20061;-74
2020/12/24 01:59:29;;;;;;;6.57;3.28;;;;;;;;;;5003223;28;20052;-75
2020/12/24 02:01:55;;;;;;;5.20;3.35;;;;;;;;;;5009402;28;20513;-74
2020/12/24 02:04:21;;;;;;;5.45;3.45;;;;;;;;;;5003073;28;20056;-74
2020/12/24 02:06:48;;;;;;;6.97;2.80;;;;;;;;;;4994066;28;20521;-75
2020/12/24 02:09:15;;;;;;;7.30;4.13;;;;;;;;;;4997511;28;20072;-74
2020/12/24 02:11:42;;;;;;;6.15;3.50;;;;;;;;;;5003654;28;20057;-74
2020/12/24 02:14:09;;;;;;;4.85;2.97;;;;;;;;;;5007250;28;20064;-75
2020/12/24 02:16:35;;;;;;;7.25;3.15;;;;;;;;;;4996388;28;20050;-75
2020/12/24 02:19:05;;;;;;;4.82;3.05;;;;;;;;;;5000095;28;20516;-75
2020/12/24 02:21:32;;;;;;;7.93;3.88;;;;;;;;;;4997751;28;20133;-75
2020/12/24 02:23:59;;;;;;;5.25;3.38;;;;;;;;;;4991772;28;20049;-75
2020/12/24 02:26:25;;;;;;;6.05;3.15;;;;;;;;;;5004489;28;20048;-75
2020/12/24 02:28:52;;;;;;;6.32;3.33;;;;;;;;;;5000489;28;20141;-75
2020/12/24 02:31:18;;;;;;;7.75;3.30;;;;;;;;;;5002086;28;20045;-75
2020/12/24 02:33:44;;;;;;;5.80;2.92;;;;;;;;;;5000122;28;20054;-75
2020/12/24 02:36:10;;;;;;;5.55;3.15;;;;;;;;;;4994944;28;20510;-76
2020/12/24 02:38:36;;;;;;;5.55;3.10;;;;;;;;;;4998942;28;20042;-75
2020/12/24 02:41:02;;;;;;;7.10;3.25;;;;;;;;;;5000356;28;20444;-73
2020/12/24 02:43:28;;;;;;;8.43;3.78;;;;;;;;;;5011924;28;20398;-73
2020/12/24 02:45:54;;;;;;;4.85;3.38;;;;;;;;;;4998605;28;20050;-73
2020/12/24 02:48:21;;;;;;;6.38;3.15;;;;;;;;;;4986082;28;20077;-73
2020/12/24 02:50:47;;;;;;;6.90;3.35;;;;;;;;;;5007302;28;20048;-75
2020/12/24 02:53:13;;;;;;;5.13;3.10;;;;;;;;;;4997117;28;20042;-73
2020/12/24 02:55:39;;;;;;;4.55;3.25;;;;;;;;;;5005257;28;20053;-76
2020/12/24 02:58:05;;;;;;;5.15;3.40;;;;;;;;;;5008990;28;20048;-75
2020/12/24 03:00:32;;;;;;;5.60;3.42;;;;;;;;;;5002659;28;20160;-75
2020/12/24 03:02:58;;;;;;;4.43;3.05;;;;;;;;;;5006896;28;20060;-75
2020/12/24 03:05:24;;;;;;;5.07;3.03;;;;;;;;;;5004965;28;20054;-75
2020/12/24 03:07:51;;;;;;;7.22;3.38;;;;;;;;;;4999030;28;20057;-75
2020/12/24 03:10:17;;;;;;;6.43;2.80;;;;;;;;;;5003929;28;20484;-74
2020/12/24 03:12:44;;;;;;;4.50;2.78;;;;;;;;;;5002088;28;20057;-74
2020/12/24 03:15:11;;;;;;;5.90;3.17;;;;;;;;;;5004549;28;20053;-73
2020/12/24 03:17:38;;;;;;;4.70;2.83;;;;;;;;;;5006211;28;20057;-72
2020/12/24 03:20:14;;;;;;;7.55;2.90;;;;;;;;;;5001507;28;20050;-72
2020/12/24 03:22:40;;;;;;;4.72;3.08;;;;;;;;;;5007316;28;20185;-72
2020/12/24 03:25:07;;;;;;;6.15;2.67;;;;;;;;;;5000573;28;20072;-72
2020/12/24 03:27:33;;;;;;;5.38;3.58;;;;;;;;;;4999070;28;20054;-71
2020/12/24 03:29:59;;;;;;;6.57;3.03;;;;;;;;;;5008512;28;20042;-72
2020/12/24 03:32:25;;;;;;;7.53;4.07;;;;;;;;;;5012951;28;20396;-73
2020/12/24 03:34:51;;;;;;;3.85;2.40;;;;;;;;;;5006731;28;21622;-73
2020/12/24 03:37:17;;;;;;;5.13;2.72;;;;;;;;;;5006323;28;20053;-73
2020/12/24 03:39:43;;;;;;;4.15;2.47;;;;;;;;;;5005606;28;20068;-73
2020/12/24 03:42:10;;;;;;;6.03;2.78;;;;;;;;;;5008321;28;20042;-73
2020/12/24 03:44:36;;;;;;;5.28;2.60;;;;;;;;;;5000525;28;20496;-73
2020/12/24 03:47:03;;;;;;;4.55;2.80;;;;;;;;;;5004764;28;20409;-73
2020/12/24 03:49:29;;;;;;;6.57;2.75;;;;;;;;;;5005894;28;20056;-74
2020/12/24 03:51:55;;;;;;;5.00;2.65;;;;;;;;;;5004177;28;20384;-76
2020/12/24 03:54:21;;;;;;;4.65;2.78;;;;;;;;;;5001848;28;20053;-76
2020/12/24 03:56:47;;;;;;;5.50;2.65;;;;;;;;;;5002294;28;20068;-76
2020/12/24 03:59:13;;;;;;;8.68;3.15;;;;;;;;;;5006792;28;20060;-75
2020/12/24 04:01:39;;;;;;;5.68;3.03;;;;;;;;;;4983358;28;20046;-74
2020/12/24 04:04:06;;;;;;;7.13;2.55;;;;;;;;;;5005483;28;20548;-75
2020/12/24 04:06:33;;;;;;;6.63;3.17;;;;;;;;;;5001073;28;20050;-76
2020/12/24 04:08:59;;;;;;;4.43;2.78;;;;;;;;;;5004907;28;20054;-75
2020/12/24 04:11:25;;;;;;;4.60;2.42;;;;;;;;;;5001002;28;20042;-75
2020/12/24 04:13:51;;;;;;;6.50;3.03;;;;;;;;;;4999868;28;20054;-76
2020/12/24 04:16:21;;;;;;;4.60;2.78;;;;;;;;;;5002192;28;20407;-75
2020/12/24 04:18:47;;;;;;;4.70;2.70;;;;;;;;;;5003358;28;20050;-74
2020/12/24 04:21:13;;;;;;;4.28;2.63;;;;;;;;;;4996584;28;20056;-74
2020/12/24 04:23:40;;;;;;;6.95;3.00;;;;;;;;;;5014846;28;20060;-75
2020/12/24 04:26:06;;;;;;;4.07;2.53;;;;;;;;;;5004467;28;20053;-74
2020/12/24 04:28:33;;;;;;;4.70;2.75;;;;;;;;;;5007453;28;20050;-74
2020/12/24 04:31:01;;;;;;;4.68;2.40;;;;;;;;;;5003551;28;20050;-74
2020/12/24 04:33:27;;;;;;;6.75;3.00;;;;;;;;;;5000392;28;20057;-76
2020/12/24 04:35:53;;;;;;;5.97;2.47;;;;;;;;;;4994003;28;20057;-75
2020/12/24 04:38:19;;;;;;;5.25;2.45;;;;;;;;;;4991171;28;20403;-76
2020/12/24 04:40:49;;;;;;;5.88;2.70;;;;;;;;;;4999366;28;20070;-76
2020/12/24 04:43:15;;;;;;;;;;;;;;;;;;4999999;28;20051;-75
2020/12/24 04:45:47;;;;;;;4.05;2.10;;;;;;;;;;5002274;28;19932;-76
2020/12/24 04:48:14;;;;;;;4.43;2.70;;;;;;;;;;5007041;28;20050;-76
2020/12/24 04:50:41;;;;;;;5.65;3.28;;;;;;;;;;4999996;28;20043;-74
2020/12/24 04:53:08;;;;;;;4.22;2.67;;;;;;;;;;5003472;28;20053;-74
2020/12/24 04:55:35;;;;;;;4.25;2.30;;;;;;;;;;4996611;28;20973;-74
2020/12/24 04:58:01;;;;;;;4.35;3.03;;;;;;;;;;4996686;28;20054;-75
2020/12/24 05:00:27;;;;;;;4.93;2.60;;;;;;;;;;5007744;28;20058;-77
2020/12/24 05:03:06;;;;;;;5.15;2.60;;;;;;;;;;4997546;28;20415;-75
2020/12/24 05:05:33;;;;;;;3.85;2.20;;;;;;;;;;4997494;28;20056;-74
2020/12/24 05:08:06;;;;;;;7.07;2.50;;;;;;;;;;5004186;28;20049;-75
2020/12/24 05:10:34;;;;;;;3.45;2.50;;;;;;;;;;5003242;28;20108;-75
2020/12/24 05:13:13;;;;;;;7.45;2.97;;;;;;;;;;5001999;28;20538;-75
2020/12/24 05:15:39;;;;;;;4.40;2.28;;;;;;;;;;4998886;28;20047;-76
2020/12/24 05:18:18;;;;;;;4.80;2.47;;;;;;;;;;5010058;28;20035;-75
2020/12/24 05:20:45;;;;;;;5.55;2.22;;;;;;;;;;5013016;28;20063;-74
2020/12/24 05:23:15;;;;;;;3.90;2.22;;;;;;;;;;4998504;28;20046;-75
2020/12/24 05:25:41;;;;;;;7.53;2.53;;;;;;;;;;5000825;28;20692;-74
2020/12/24 05:28:08;;;;;;;6.85;2.78;;;;;;;;;;5001428;28;20049;-76
2020/12/24 05:30:34;;;;;;;4.40;2.60;;;;;;;;;;5003083;28;20053;-76
2020/12/24 05:33:00;;;;;;;5.00;2.50;;;;;;;;;;4997259;28;20045;-75
2020/12/24 05:35:27;;;;;;;5.35;2.60;;;;;;;;;;5003025;28;20051;-76
2020/12/24 05:37:53;;;;;;;5.55;2.58;;;;;;;;;;4999799;28;20062;-76
2020/12/24 05:40:27;;;;;;;4.13;2.15;;;;;;;;;;5000807;28;20547;-76
2020/12/24 05:42:57;;;;;;;4.95;3.08;;;;;;;;;;5005039;28;20056;-75
2020/12/24 05:45:25;;;;;;;6.68;2.60;;;;;;;;;;5007849;28;20058;-75
2020/12/24 05:48:11;;;;;;;4.60;2.42;;;;;;;;;;4996674;28;20046;-74
2020/12/24 05:50:37;;;;;;;4.00;2.40;;;;;;;;;;5005313;28;20063;-74
2020/12/24 05:53:07;;;;;;;5.55;2.47;;;;;;;;;;5002529;28;20042;-74
2020/12/24 05:55:34;;;;;;;4.70;2.67;;;;;;;;;;5000961;28;20054;-74
2020/12/24 05:58:00;;;;;;;4.28;2.47;;;;;;;;;;4999103;28;20061;-74
2020/12/24 06:00:33;;;;;;;3.67;2.45;;;;;;;;;;4995979;28;20042;-74
2020/12/24 06:03:10;;;;;;;5.43;3.10;;;;;;;;;;5003662;28;20049;-73
2020/12/24 06:05:46;;;;;;;5.45;2.83;;;;;;;;;;5002717;28;20495;-75
2020/12/24 06:08:16;;;;;;;4.88;2.30;;;;;;;;;;4998679;28;20078;-76
2020/12/24 06:10:46;;;;;;;4.68;2.70;;;;;;;;;;5000610;28;20444;-77
2020/12/24 06:13:16;;;;;;;4.38;2.70;;;;;;;;;;5004359;28;20049;-72
2020/12/24 06:15:47;;;;;;;4.63;2.45;;;;;;;;;;4998306;28;20145;-74
2020/12/24 06:18:13;;;;;;;4.88;2.50;;;;;;;;;;5008491;28;20070;-76
2020/12/24 06:20:43;;;;;;;5.28;2.40;;;;;;;;;;4997614;28;20058;-75
2020/12/24 06:23:09;;;;;;;;;;;;;;;;;;4999584;28;20059;-76
2020/12/24 06:25:35;;;;;;;3.72;2.28;;;;;;;;;;5005530;28;20056;-78
2020/12/24 06:28:02;;;;;;;4.18;2.13;;;;;;;;;;5012819;28;20062;-74
2020/12/24 06:30:29;;;;;;;5.82;2.80;;;;;;;;;;4998836;28;20041;-75
2020/12/24 06:32:56;;;;;;;4.07;2.25;;;;;;;;;;5006239;28;20141;-74
2020/12/24 06:35:38;;;;;;;3.75;2.30;;;;;;;;;;4998460;28;20373;-74
2020/12/24 06:38:09;;;;;;;3.75;2.47;;;;;;;;;;4998389;28;20064;-76
2020/12/24 06:40:36;;;;;;;4.00;2.20;;;;;;;;;;5006471;28;20120;-75
2020/12/24 06:43:06;;;;;;;3.55;2.42;;;;;;;;;;5006608;28;20053;-73
2020/12/24 06:45:39;;;;;;;3.55;2.45;;;;;;;;;;5008623;28;20058;-74
2020/12/24 06:48:19;;;;;;;5.10;2.40;;;;;;;;;;4998735;28;20128;-76
2020/12/24 06:50:46;;;;;;;4.25;2.40;;;;;;;;;;5003176;28;20056;-74
2020/12/24 06:53:23;;;;;;;4.20;3.22;;;;;;;;;;4994038;28;20499;-75
2020/12/24 06:56:08;;;;;;;4.00;2.38;;;;;;;;;;4996585;28;20046;-75
2020/12/24 06:58:41;;;;;;;3.88;2.15;;;;;;;;;;5006567;28;20056;-75
2020/12/24 07:01:13;;;;;;;2.53;1.70;;;;;;;;;;5000472;28;20060;-75
2020/12/24 07:03:39;;;;;;;4.22;2.35;;;;;;;;;;4998342;28;20057;-75
2020/12/24 07:06:05;;;;;;;4.85;2.20;;;;;;;;;;4991348;28;20064;-74
2020/12/24 07:08:31;;;;;;;4.55;2.30;;;;;;;;;;4997842;28;20657;-74
2020/12/24 07:10:58;;;;;;;5.43;2.53;;;;;;;;;;4996316;28;20058;-71
2020/12/24 07:13:37;;;;;;;3.83;2.50;;;;;;;;;;5011326;28;20077;-84
2020/12/24 07:16:04;;;;;;;3.40;1.63;;;;;;;;;;5006522;28;20457;-78
2020/12/24 07:18:31;;;;;;;3.38;1.95;;;;;;;;;;4996540;28;20051;-79
2020/12/24 07:21:01;;;;;;;3.08;1.55;;;;;;;;;;5005666;28;20123;-85
2020/12/24 07:23:27;;;;;;;;;;;;;;;;;;5000598;28;20142;-78
2020/12/24 07:25:53;;;;;;;3.58;2.15;;;;;;;;;;4998879;28;19925;-79
2020/12/24 07:28:19;;;;;;;4.65;2.80;;;;;;;;;;4996270;28;20480;-79
2020/12/24 07:30:58;;;;;;;3.83;2.00;;;;;;;;;;5001715;28;20096;-80
2020/12/24 07:33:25;;;;;;;5.45;2.05;;;;;;;;;;5008188;28;20402;-77
2020/12/24 07:35:52;;;;;;;4.70;2.10;;;;;;;;;;5005246;28;20045;-87
2020/12/24 07:38:23;;;;;;;5.60;2.85;;;;;;;;;;5003047;28;20042;-94
2020/12/24 07:40:52;;;;;;;4.28;2.05;;;;;;;;;;4999016;28;20799;-76
2020/12/24 07:43:18;;;;;;;3.65;1.92;;;;;;;;;;4996779;28;20048;-83
2020/12/24 07:45:44;;;;;;;4.10;2.22;;;;;;;;;;4992839;28;20065;-79
2020/12/24 07:48:15;;;;;;;4.38;2.65;;;;;;;;;;4992150;28;20441;-82
2020/12/24 07:50:42;;;;;;;9.27;2.42;;;;;;;;;;4989761;28;20081;-74
2020/12/24 07:53:16;;;;;;;5.90;2.22;;;;;;;;;;4999633;28;20106;-74
2020/12/24 07:55:42;;;;;;;4.28;2.30;;;;;;;;;;5000275;28;20046;-73
2020/12/24 07:58:09;;;;;;;3.95;1.65;;;;;;;;;;4992157;28;20496;-80
2020/12/24 08:00:48;;;;;;;5.57;1.95;;;;;;;;;;4965848;28;20054;-73
2020/12/24 08:03:15;;;;;;;3.95;2.55;;;;;;;;;;5001340;28;20053;-74
2020/12/24 08:05:45;;;;;;;4.07;2.30;;;;;;;;;;5003582;28;20056;-72
2020/12/24 08:08:11;;;;;;;4.38;1.95;;;;;;;;;;5007857;28;20046;-73
2020/12/24 08:10:41;;;;;;;3.83;2.20;;;;;;;;;;5002727;28;20488;-72
2020/12/24 08:13:08;;;;;;;3.97;2.10;;;;;;;;;;5001415;28;20058;-72
2020/12/24 08:15:41;;;;;;;3.38;1.95;;;;;;;;;;5011093;28;20053;-73
2020/12/24 08:18:08;;;;;;;3.42;2.00;;;;;;;;;;5003725;28;20057;-73
2020/12/24 08:20:35;;;;;;;3.65;2.38;;;;;;;;;;5004196;28;20060;-74
2020/12/24 08:23:06;;;;;;;4.88;1.90;;;;;;;;;;4999217;28;20042;-78
2020/12/24 08:25:33;;;;;;;3.05;1.98;;;;;;;;;;4999763;28;20054;-74
2020/12/24 08:27:59;;;;;;;3.63;2.05;;;;;;;;;;4999720;28;20437;-76
2020/12/24 08:30:36;;;;;;;2.63;1.75;;;;;;;;;;4997051;28;20081;-76
2020/12/24 08:33:04;;;;;;;3.47;2.10;;;;;;;;;;5006731;28;20062;-74
2020/12/24 08:35:30;;;;;;;2.70;1.60;;;;;;;;;;4998363;28;20053;-75
2020/12/24 08:38:29;;;;;;;2.75;1.50;;;;;;;;;;4998971;28;20046;-73
2020/12/24 08:40:58;;;;;;;3.42;1.85;;;;;;;;;;4974879;28;20151;-75
2020/12/24 08:43:26;;;;;;;3.13;1.73;;;;;;;;;;5000556;28;20159;-74
2020/12/24 08:45:52;;;;;;;4.40;2.67;;;;;;;;;;5004609;28;20045;-74
2020/12/24 08:48:34;;;;;;;3.97;1.80;;;;;;;;;;5008149;28;20419;-74
2020/12/24 08:51:10;;;;;;;3.70;1.80;;;;;;;;;;5004323;28;20052;-74
2020/12/24 08:53:49;;;;;;;2.33;1.60;;;;;;;;;;4998387;28;20042;-74
2020/12/24 08:56:16;;;;;;;4.70;2.38;;;;;;;;;;5000885;28;20050;-73
2020/12/24 08:58:49;;;;;;;3.72;1.95;;;;;;;;;;4996054;28;20051;-76
2020/12/24 09:01:15;;;;;;;2.95;2.08;;;;;;;;;;4997690;28;20407;-76
2020/12/24 09:03:43;;;;;;;6.13;2.42;;;;;;;;;;4994406;28;20145;-75
2020/12/24 09:06:12;;;;;;;3.63;1.92;;;;;;;;;;4999335;28;20133;-72
2020/12/24 09:08:48;;;;;;;5.43;2.55;;;;;;;;;;5001185;28;20047;-72
2020/12/24 09:11:27;;;;;;;4.90;3.03;;;;;;;;;;4994671;28;20399;-72
2020/12/24 09:14:04;;;;;;;7.25;3.40;;;;;;;;;;5006090;28;20057;-73
2020/12/24 09:16:31;;;;;;;11.57;4.15;;;;;;;;;;4998576;28;20077;-73
2020/12/24 09:19:02;;;;;;;5.63;3.72;;;;;;;;;;5008537;28;20504;-73
2020/12/24 09:21:28;;;;;;;6.18;4.40;;;;;;;;;;4998688;28;20647;-73
2020/12/24 09:24:14;;;;;;;9.50;5.30;;;;;;;;;;5011149;28;20077;-73
2020/12/24 09:26:50;;;;;;;9.35;5.43;;;;;;;;;;5002437;28;20058;-73
2020/12/24 09:29:17;;;;;;;9.20;5.78;;;;;;;;;;4997433;28;20049;-71
2020/12/24 09:31:59;;;;;;;11.10;5.50;;;;;;;;;;5003099;28;20073;-71
2020/12/24 09:34:29;;;;;;;9.98;5.97;;;;;;;;;;5005120;28;20050;-72
2020/12/24 09:36:58;;;;;;;11.52;6.13;;;;;;;;;;5006556;28;20111;-72
2020/12/24 09:39:25;;;;;;;11.43;5.93;;;;;;;;;;5002670;28;20046;-72
2020/12/24 09:41:54;;;;;;;8.88;5.18;;;;;;;;;;4993488;28;20054;-73
2020/12/24 09:44:22;;;;;;;8.82;5.53;;;;;;;;;;5004314;28;20049;-72
2020/12/24 09:46:48;;;;;;;8.10;5.55;;;;;;;;;;5002738;28;20046;-73
2020/12/24 09:49:15;;;;;;;8.05;4.75;;;;;;;;;;5007917;28;20050;-71
2020/12/24 09:51:42;;;;;;;12.23;5.00;;;;;;;;;;5006933;28;20542;-72
2020/12/24 09:54:27;;;;;;;7.93;4.70;;;;;;;;;;5004813;28;20892;-72
2020/12/24 09:56:55;;;;;;;9.40;5.03;;;;;;;;;;5004354;28;20117;-71
2020/12/24 09:59:21;;;;;;;16.17;5.72;;;;;;;;;;4998011;28;20056;-71
2020/12/24 10:01:51;;;;;;;8.65;5.07;;;;;;;;;;4997347;28;20136;-74
2020/12/24 10:04:17;;;;;;;9.68;4.70;;;;;;;;;;5004540;28;20048;-72
2020/12/24 10:06:43;;;;;;;7.05;4.55;;;;;;;;;;5001421;28;20046;-72
2020/12/24 10:09:09;;;;;;;10.13;5.00;;;;;;;;;;5000415;28;20136;-72
2020/12/24 10:11:35;;;;;;;11.63;6.15;;;;;;;;;;4988949;28;20054;-71
2020/12/24 10:14:01;;;;;;;8.73;4.53;;;;;;;;;;4992518;28;20484;-72
2020/12/24 10:16:28;;;;;;;10.73;5.18;;;;;;;;;;4997406;28;20100;-72
2020/12/24 10:18:54;;;;;;;12.40;6.10;;;;;;;;;;5005934;28;20053;-72
2020/12/24 10:21:20;;;;;;;10.07;5.22;;;;;;;;;;5004984;28;20694;-73
2020/12/24 10:23:46;;;;;;;7.72;5.07;;;;;;;;;;5000553;28;20555;-75
2020/12/24 10:26:16;;;;;;;13.30;7.10;;;;;;;;;;5005320;28;20144;-75
2020/12/24 10:28:42;;;;;;;7.65;4.93;;;;;;;;;;4999753;28;20042;-75
2020/12/24 10:31:08;;;;;;;15.05;6.07;;;;;;;;;;5002886;28;20081;-74
2020/12/24 10:33:34;;;;;;;9.68;5.07;;;;;;;;;;4985646;28;20140;-74
2020/12/24 10:36:00;;;;;;;7.28;4.30;;;;;;;;;;5002960;28;20129;-74
2020/12/24 10:38:28;;;;;;;11.13;4.55;;;;;;;;;;5009518;28;20046;-73
2020/12/24 10:40:54;;;;;;;8.57;4.72;;;;;;;;;;5009246;28;20057;-76
2020/12/24 10:43:20;;;;;;;7.40;4.57;;;;;;;;;;5005982;28;20075;-76
2020/12/24 10:45:47;;;;;;;8.43;4.60;;;;;;;;;;5005175;28;20046;-78
2020/12/24 10:48:13;;;;;;;9.75;5.15;;;;;;;;;;5001528;28;20823;-74
2020/12/24 10:50:39;;;;;;;9.15;4.55;;;;;;;;;;5006933;28;20057;-75
2020/12/24 10:53:05;;;;;;;11.95;5.22;;;;;;;;;;5003396;28;20054;-75
2020/12/24 10:55:31;;;;;;;11.98;4.93;;;;;;;;;;4987754;28;20068;-74
2020/12/24 10:57:57;;;;;;;6.60;4.22;;;;;;;;;;5013752;28;20068;-79
2020/12/24 11:00:25;;;;;;;6.45;4.43;;;;;;;;;;4999905;28;20139;-77
2020/12/24 11:02:51;;;;;;;7.70;3.67;;;;;;;;;;4999830;28;20041;-77
2020/12/24 11:05:17;;;;;;;6.35;4.35;;;;;;;;;;5007910;28;20050;-74
2020/12/24 11:07:44;;;;;;;11.25;4.10;;;;;;;;;;5004600;28;20050;-74
2020/12/24 11:10:10;;;;;;;6.68;3.97;;;;;;;;;;4999429;28;20052;-76
2020/12/24 11:12:36;;;;;;;5.68;3.50;;;;;;;;;;5003501;28;20046;-75
2020/12/24 11:15:02;;;;;;;7.47;4.88;;;;;;;;;;5004045;28;20491;-78
2020/12/24 11:17:30;;;;;;;5.32;3.80;;;;;;;;;;5001987;28;20050;-75
2020/12/24 11:19:56;;;;;;;7.53;4.22;;;;;;;;;;4995913;28;20064;-78
2020/12/24 11:22:22;;;;;;;7.57;4.05;;;;;;;;;;5004206;28;20705;-79
2020/12/24 11:24:51;;;;;;;11.18;4.18;;;;;;;;;;5008844;28;20479;-78
2020/12/24 11:27:18;;;;;;;6.10;3.20;;;;;;;;;;5001671;28;20141;-79
2020/12/24 11:29:44;;;;;;;5.97;3.45;;;;;;;;;;4998712;28;20148;-77
2020/12/24 11:32:10;;;;;;;8.07;3.50;;;;;;;;;;5004259;28;20045;-76
2020/12/24 11:34:38;;;;;;;9.32;3.80;;;;;;;;;;5005510;28;20081;-77
2020/12/24 11:37:05;;;;;;;5.40;3.92;;;;;;;;;;5002563;28;20484;-76
2020/12/24 11:39:37;;;;;;;6.50;3.38;;;;;;;;;;5008596;28;20059;-77
2020/12/24 11:42:05;;;;;;;7.22;3.95;;;;;;;;;;5007532;28;20479;-77
2020/12/24 11:44:31;;;;;;;6.03;3.35;;;;;;;;;;5008677;28;20058;-77
2020/12/24 11:46:58;;;;;;;6.05;3.30;;;;;;;;;;5009298;28;20125;-76
2020/12/24 11:49:24;;;;;;;7.97;3.08;;;;;;;;;;5004664;28;20056;-77
2020/12/24 11:51:53;;;;;;;6.43;3.65;;;;;;;;;;5003999;28;20050;-77
2020/12/24 11:54:19;;;;;;;4.05;3.05;;;;;;;;;;5002685;28;20436;-77
2020/12/24 11:56:46;;;;;;;6.47;3.70;;;;;;;;;;4992035;28;20051;-77
2020/12/24 11:59:12;;;;;;;4.45;2.60;;;;;;;;;;4991794;28;20050;-75
2020/12/24 12:01:39;;;;;;;5.43;3.00;;;;;;;;;;5008689;28;20056;-77
2020/12/24 12:04:05;;;;;;;4.55;3.05;;;;;;;;;;5008554;28;20046;-74
2020/12/24 12:06:32;;;;;;;6.47;3.22;;;;;;;;;;4995994;28;20055;-77
2020/12/24 12:08:58;;;;;;;4.18;2.92;;;;;;;;;;5007100;28;20046;-77
2020/12/24 12:11:25;;;;;;;6.47;3.15;;;;;;;;;;5009846;28;20419;-77
2020/12/24 12:13:51;;;;;;;4.93;3.33;;;;;;;;;;5003638;28;20050;-78
2020/12/24 12:16:23;;;;;;;6.38;2.92;;;;;;;;;;5006357;28;20045;-77
2020/12/24 12:18:49;;;;;;;3.95;2.63;;;;;;;;;;4999959;28;20056;-76
2020/12/24 12:21:19;;;;;;;4.38;2.75;;;;;;;;;;5001625;28;20052;-76
2020/12/24 12:23:45;;;;;;;7.72;3.03;;;;;;;;;;5004840;28;20054;-77
2020/12/24 12:26:12;;;;;;;5.68;2.92;;;;;;;;;;5008136;28;20049;-77
2020/12/24 12:28:46;;;;;;;5.18;2.70;;;;;;;;;;5000996;28;20050;-77
2020/12/24 12:31:22;;;;;;;4.93;2.55;;;;;;;;;;5010876;28;20057;-79
2020/12/24 12:33:49;;;;;;;5.60;3.13;;;;;;;;;;5001863;28;20050;-78
2020/12/24 12:36:15;;;;;;;4.18;2.40;;;;;;;;;;5006359;28;20054;-78
2020/12/24 12:38:43;;;;;;;4.68;2.30;;;;;;;;;;5002728;28;20097;-77
2020/12/24 12:41:10;;;;;;;5.40;2.78;;;;;;;;;;4990341;28;20132;-77
2020/12/24 12:43:36;;;;;;;3.28;2.22;;;;;;;;;;4984419;28;20516;-77
2020/12/24 12:46:02;;;;;;;3.90;2.20;;;;;;;;;;5000112;28;20052;-77
2020/12/24 12:48:29;;;;;;;5.22;2.53;;;;;;;;;;5008280;28;20054;-77
2020/12/24 12:50:55;;;;;;;4.63;2.65;;;;;;;;;;5004713;28;20119;-78
2020/12/24 12:53:21;;;;;;;7.05;3.28;;;;;;;;;;5003266;28;20502;-77
2020/12/24 12:55:47;;;;;;;7.20;2.80;;;;;;;;;;5012766;28;20052;-77
2020/12/24 12:58:13;;;;;;;4.50;2.38;;;;;;;;;;5000540;28;20057;-78
2020/12/24 13:00:43;;;;;;;5.82;2.60;;;;;;;;;;5005693;28;20129;-77
2020/12/24 13:03:12;;;;;;;5.68;2.67;;;;;;;;;;5003178;28;20054;-77
2020/12/24 13:05:40;;;;;;;4.35;2.70;;;;;;;;;;4998338;28;20050;-74
2020/12/24 13:08:06;;;;;;;6.63;3.40;;;;;;;;;;4996067;28;20050;-78
2020/12/24 13:10:32;;;;;;;8.07;3.22;;;;;;;;;;5001910;28;20050;-81
2020/12/24 13:12:59;;;;;;;12.45;3.25;;;;;;;;;;5008237;28;20042;-78
2020/12/24 13:15:25;;;;;;;11.73;3.50;;;;;;;;;;4997724;28;20133;-78
2020/12/24 13:17:54;;;;;;;14.40;4.82;;;;;;;;;;5004597;28;20047;-76
2020/12/24 13:20:20;;;;;;;8.73;3.40;;;;;;;;;;4998930;28;20060;-76
2020/12/24 13:22:46;;;;;;;9.82;4.43;;;;;;;;;;5011183;28;20057;-74
2020/12/24 13:25:12;;;;;;;10.27;3.50;;;;;;;;;;4995002;28;20051;-75
2020/12/24 13:27:54;;;;;;;8.77;3.38;;;;;;;;;;4996903;28;20073;-77
2020/12/24 13:30:21;;;;;;;14.73;3.45;;;;;;;;;;4994604;28;20064;-77
2020/12/24 13:32:47;;;;;;;10.77;4.53;;;;;;;;;;4990362;28;20050;-77
2020/12/24 13:35:13;;;;;;;14.82;4.07;;;;;;;;;;5002156;28;20042;-75
2020/12/24 13:37:39;;;;;;;11.77;4.30;;;;;;;;;;5001110;28;20049;-75
2020/12/24 13:40:05;;;;;;;18.50;6.28;;;;;;;;;;4985932;28;20053;-75
2020/12/24 13:42:31;;;;;;;17.35;5.95;;;;;;;;;;4994017;28;20510;-77
2020/12/24 13:44:58;;;;;;;14.70;6.03;;;;;;;;;;4997613;28;20532;-74
2020/12/24 13:47:24;;;;;;;13.45;6.05;;;;;;;;;;5001965;28;20431;-72
2020/12/24 13:49:50;;;;;;;19.55;6.70;;;;;;;;;;5004417;28;20057;-73
2020/12/24 13:52:18;;;;;;;16.85;6.03;;;;;;;;;;4985683;28;20078;-72
2020/12/24 13:54:44;;;;;;;13.23;6.20;;;;;;;;;;4992611;28;20042;-72
2020/12/24 13:57:10;;;;;;;13.77;5.63;;;;;;;;;;4998258;28;20056;-72
2020/12/24 13:59:37;;;;;;;13.98;5.10;;;;;;;;;;4992737;28;20440;-72
2020/12/24 14:02:04;;;;;;;15.02;6.38;;;;;;;;;;4994805;28;20419;-72
2020/12/24 14:04:30;;;;;;;14.52;5.38;;;;;;;;;;4992156;28;20050;-73
2020/12/24 14:06:58;;;;;;;17.05;4.72;;;;;;;;;;4992152;28;20050;-72
2020/12/24 14:09:24;;;;;;;11.63;4.80;;;;;;;;;;4992822;28;20054;-72
2020/12/24 14:11:51;;;;;;;13.40;5.47;;;;;;;;;;4995582;28;20502;-72
2020/12/24 14:14:17;;;;;;;13.82;4.60;;;;;;;;;;4991980;28;20172;-72
2020/12/24 14:16:43;;;;;;;10.95;5.05;;;;;;;;;;4988647;28;20054;-73
2020/12/24 14:19:10;;;;;;;12.88;5.72;;;;;;;;;;4994071;28;20057;-73
2020/12/24 14:21:38;;;;;;;10.65;4.68;;;;;;;;;;4993558;28;20042;-72
2020/12/24 14:24:04;;;;;;;12.82;5.57;;;;;;;;;;4994226;28;20057;-72
2020/12/24 14:26:31;;;;;;;11.10;4.35;;;;;;;;;;4995747;28;20050;-72
2020/12/24 14:28:58;;;;;;;10.15;4.32;;;;;;;;;;5000932;28;20046;-72
2020/12/24 14:31:29;;;;;;;10.65;4.70;;;;;;;;;;4991989;28;20559;-73
2020/12/24 14:33:55;;;;;;;10.25;5.22;;;;;;;;;;4996678;28;20504;-72
2020/12/24 14:36:22;;;;;;;8.82;4.40;;;;;;;;;;4985832;28;20046;-72
2020/12/24 14:38:48;;;;;;;9.70;4.28;;;;;;;;;;4998695;28;20050;-73
2020/12/24 14:41:16;;;;;;;15.27;4.75;;;;;;;;;;4993524;28;20054;-72
2020/12/24 14:43:42;;;;;;;12.65;5.45;;;;;;;;;;4993490;28;20052;-72
2020/12/24 14:46:09;;;;;;;10.25;4.57;;;;;;;;;;4992673;28;20054;-72
2020/12/24 14:48:36;;;;;;;8.77;4.28;;;;;;;;;;4993991;28;20049;-72